Time,TemperatureF,DewpointF,PressureIn,WindDirection,WindDirectionDegrees,WindSpeedMPH,WindSpeedGustMPH,Humidity,HourlyPrecipIn,Conditions,Clouds,dailyrainin,SoftwareType,DateUTC
2013-01-11 07:10:00,50.0,48.6,29.81,SE,139,11.0,12.0,95,0.00,,,0.33,Wunderground v.1.15,2013-01-11 12:10:00,
2013-01-11 07:16:00,50.0,48.6,29.82,SE,141,11.0,14.0,95,0.00,,,0.33,Wunderground v.1.15,2013-01-11 12:16:00,
2013-01-11 07:22:00,50.0,48.6,29.81,SE,134,12.0,17.0,95,0.00,,,0.33,Wunderground v.1.15,2013-01-11 12:22:00,
2013-01-11 07:28:00,50.3,49.2,29.81,SE,135,10.0,17.0,96,0.00,,,0.33,Wunderground v.1.15,2013-01-11 12:28:00,
2013-01-11 07:33:00,50.5,49.1,29.83,SE,135,10.0,16.0,95,0.00,,,0.33,Wunderground v.1.15,2013-01-11 12:33:00,
2013-01-11 07:39:00,50.7,49.3,29.82,SSE,151,11.0,19.0,95,0.00,,,0.33,Wunderground v.1.15,2013-01-11 12:39:00,
2013-01-11 07:45:00,50.6,49.2,29.82,SSE,163,10.0,14.0,95,0.00,,,0.33,Wunderground v.1.15,2013-01-11 12:45:00,
2013-01-11 07:51:00,50.2,48.5,29.84,South,180,9.0,11.0,94,0.00,,,0.33,Wunderground v.1.15,2013-01-11 12:51:00,
2013-01-11 07:56:00,50.0,48.6,29.84,SE,145,9.0,12.0,95,0.00,,,0.33,Wunderground v.1.15,2013-01-11 12:56:00,
2013-01-11 08:02:00,49.8,48.4,29.85,South,180,9.0,12.0,95,0.00,,,0.33,Wunderground v.1.15,2013-01-11 13:02:00,
2013-01-11 08:08:00,50.1,49.0,29.86,South,173,9.0,12.0,96,0.00,,,0.33,Wunderground v.1.15,2013-01-11 13:08:00,
2013-01-11 08:14:00,50.4,49.3,29.86,South,180,9.0,12.0,96,0.00,,,0.33,Wunderground v.1.15,2013-01-11 13:14:00,
2013-01-11 08:19:00,50.6,49.5,29.86,SE,142,9.0,12.0,96,0.00,,,0.33,Wunderground v.1.15,2013-01-11 13:19:00,
2013-01-11 08:25:00,50.8,49.7,29.86,SSW,193,9.0,10.0,96,0.00,,,0.33,Wunderground v.1.15,2013-01-11 13:25:00,
2013-01-11 08:31:00,51.0,49.9,29.86,SSW,208,8.0,9.0,96,0.00,,,0.33,Wunderground v.1.15,2013-01-11 13:31:00,
2013-01-11 08:37:00,51.0,49.9,29.86,SSW,200,7.0,22.0,96,0.00,,,0.33,Wunderground v.1.15,2013-01-11 13:37:00,
2013-01-11 08:43:00,51.0,49.9,29.87,South,191,7.0,22.0,96,0.00,,,0.33,Wunderground v.1.15,2013-01-11 13:43:00,
2013-01-11 08:49:00,51.0,49.9,29.87,SSW,198,8.0,22.0,96,0.00,,,0.33,Wunderground v.1.15,2013-01-11 13:49:00,
2013-01-11 08:54:00,51.1,50.0,29.87,SSW,204,8.0,22.0,96,0.00,,,0.33,Wunderground v.1.15,2013-01-11 13:54:00,
2013-01-11 09:00:00,51.2,50.1,29.88,SSW,197,9.0,10.0,96,0.00,,,0.33,Wunderground v.1.15,2013-01-11 14:00:00,
2013-01-11 09:06:00,51.2,50.1,29.87,SSW,210,9.0,12.0,96,0.00,,,0.33,Wunderground v.1.15,2013-01-11 14:06:00,
2013-01-11 09:12:00,51.2,50.1,29.87,SSW,209,9.0,9.0,96,0.00,,,0.33,Wunderground v.1.15,2013-01-11 14:12:00,
2013-01-11 09:17:00,51.2,50.1,29.87,South,187,8.0,13.0,96,0.00,,,0.33,Wunderground v.1.15,2013-01-11 14:17:00,
2013-01-11 09:23:00,51.3,50.2,29.87,SSW,211,8.0,10.0,96,0.00,,,0.33,Wunderground v.1.15,2013-01-11 14:23:00,
2013-01-11 09:29:00,51.4,50.3,29.87,SSW,207,9.0,13.0,96,0.00,,,0.33,Wunderground v.1.15,2013-01-11 14:29:00,
2013-01-11 09:35:00,51.6,50.5,29.87,South,176,9.0,18.0,96,0.00,,,0.33,Wunderground v.1.15,2013-01-11 14:35:00,
2013-01-11 09:40:00,51.7,50.6,29.87,SSW,205,9.0,18.0,96,0.00,,,0.33,Wunderground v.1.15,2013-01-11 14:40:00,
2013-01-11 09:46:00,51.7,50.6,29.88,SW,215,8.0,18.0,96,0.00,,,0.34,Wunderground v.1.15,2013-01-11 14:46:00,
2013-01-11 09:52:00,51.7,50.6,29.88,SW,227,8.0,18.0,96,0.07,,,0.35,Wunderground v.1.15,2013-01-11 14:52:00,
2013-01-11 09:58:00,51.8,50.7,29.88,SSW,210,8.0,18.0,96,0.07,,,0.35,Wunderground v.1.15,2013-01-11 14:58:00,
2013-01-11 10:04:00,51.9,50.8,29.88,SSW,195,8.0,9.0,96,0.04,,,0.35,Wunderground v.1.15,2013-01-11 15:04:00,
2013-01-11 10:09:00,52.1,51.0,29.88,SW,221,8.0,10.0,96,0.00,,,0.35,Wunderground v.1.15,2013-01-11 15:09:00,
2013-01-11 10:15:00,52.7,51.3,29.88,WSW,240,8.0,10.0,95,0.00,,,0.35,Wunderground v.1.15,2013-01-11 15:15:00,
2013-01-11 10:20:00,53.1,51.7,29.88,SSW,198,9.0,9.0,95,0.00,,,0.35,Wunderground v.1.15,2013-01-11 15:20:00,
2013-01-11 10:26:00,53.4,51.7,29.88,SW,219,9.0,11.0,94,0.00,,,0.35,Wunderground v.1.15,2013-01-11 15:26:00,
2013-01-11 10:32:00,53.4,51.7,29.88,SSW,195,9.0,14.0,94,0.00,,,0.35,Wunderground v.1.15,2013-01-11 15:32:00,
2013-01-11 10:37:00,53.6,51.9,29.89,SW,225,8.0,14.0,94,0.00,,,0.35,Wunderground v.1.15,2013-01-11 15:37:00,
2013-01-11 10:43:00,53.8,52.1,29.88,SSW,195,7.0,14.0,94,0.00,,,0.35,Wunderground v.1.15,2013-01-11 15:43:00,
2013-01-11 10:49:00,54.2,52.5,29.88,SW,222,7.0,14.0,94,0.00,,,0.35,Wunderground v.1.15,2013-01-11 15:49:00,
2013-01-11 10:55:00,54.8,52.8,29.89,SSW,210,8.0,14.0,93,0.00,,,0.35,Wunderground v.1.15,2013-01-11 15:55:00,
2013-01-11 11:00:00,54.9,52.9,29.89,SW,226,8.0,8.0,93,0.00,,,0.35,Wunderground v.1.15,2013-01-11 16:00:00,
2013-01-11 11:05:00,54.9,52.6,29.89,SW,232,8.0,13.0,92,0.00,,,0.35,Wunderground v.1.15,2013-01-11 16:05:00,
2013-01-11 11:11:00,54.9,52.6,29.89,SSE,158,9.0,10.0,92,0.00,,,0.35,Wunderground v.1.15,2013-01-11 16:11:00,
2013-01-11 11:17:00,55.0,52.4,29.88,SW,225,9.0,10.0,91,0.00,,,0.35,Wunderground v.1.15,2013-01-11 16:17:00,
2013-01-11 11:23:00,55.2,52.0,29.89,SSW,212,10.0,13.0,89,0.00,,,0.35,Wunderground v.1.15,2013-01-11 16:23:00,
2013-01-11 11:28:00,55.3,52.1,29.89,SW,228,11.0,17.0,89,0.00,,,0.35,Wunderground v.1.15,2013-01-11 16:28:00,
2013-01-11 11:34:00,55.2,51.7,29.89,WSW,248,10.0,14.0,88,0.00,,,0.35,Wunderground v.1.15,2013-01-11 16:34:00,
2013-01-11 11:40:00,55.1,51.6,29.89,WSW,243,12.0,12.0,88,0.00,,,0.35,Wunderground v.1.15,2013-01-11 16:40:00,
2013-01-11 11:46:00,55.5,52.0,29.88,WSW,252,11.0,14.0,88,0.00,,,0.35,Wunderground v.1.15,2013-01-11 16:46:00,
2013-01-11 11:51:00,55.6,52.1,29.88,SSW,210,11.0,14.0,88,0.00,,,0.35,Wunderground v.1.15,2013-01-11 16:51:00,
2013-01-11 11:57:00,55.7,51.9,29.88,SW,228,11.0,14.0,87,0.00,,,0.35,Wunderground v.1.15,2013-01-11 16:57:00,
2013-01-11 12:03:00,56.1,52.6,29.88,South,190,10.0,11.0,88,0.00,,,0.35,Wunderground v.1.15,2013-01-11 17:03:00,
2013-01-11 12:09:00,56.4,52.6,29.88,West,277,9.0,15.0,87,0.00,,,0.35,Wunderground v.1.15,2013-01-11 17:09:00,
2013-01-11 12:14:00,56.4,52.3,29.88,South,190,11.0,20.0,86,0.00,,,0.35,Wunderground v.1.15,2013-01-11 17:14:00,
2013-01-11 12:20:00,56.2,51.7,29.88,SW,218,11.0,15.0,85,0.00,,,0.35,Wunderground v.1.15,2013-01-11 17:20:00,
2013-01-11 12:26:00,56.0,51.6,29.87,WSW,238,12.0,17.0,85,0.00,,,0.35,Wunderground v.1.15,2013-01-11 17:26:00,
2013-01-11 12:32:00,55.9,51.5,29.87,SW,224,12.0,22.0,85,0.00,,,0.35,Wunderground v.1.15,2013-01-11 17:32:00,
2013-01-11 12:38:00,55.8,51.0,29.87,SSW,212,11.0,22.0,84,0.00,,,0.35,Wunderground v.1.15,2013-01-11 17:38:00,
2013-01-11 12:43:00,56.1,50.7,29.87,WSW,243,11.0,22.0,82,0.00,,,0.35,Wunderground v.1.15,2013-01-11 17:43:00,
2013-01-11 12:49:00,56.7,50.9,29.87,SW,215,12.0,22.0,81,0.00,,,0.35,Wunderground v.1.15,2013-01-11 17:49:00,
2013-01-11 12:55:00,57.2,50.7,29.87,WSW,240,13.0,22.0,79,0.00,,,0.35,Wunderground v.1.15,2013-01-11 17:55:00,
2013-01-11 13:00:00,57.3,50.8,29.87,WSW,240,14.0,14.0,79,0.00,,,0.35,Wunderground v.1.15,2013-01-11 18:00:00,
2013-01-11 13:05:00,56.9,49.8,29.87,SW,231,14.0,21.0,77,0.00,,,0.35,Wunderground v.1.15,2013-01-11 18:05:00,
2013-01-11 13:11:00,56.4,49.6,29.87,WSW,239,14.0,23.0,78,0.00,,,0.35,Wunderground v.1.15,2013-01-11 18:11:00,
2013-01-11 13:17:00,56.6,49.8,29.87,SSW,213,14.0,23.0,78,0.00,,,0.35,Wunderground v.1.15,2013-01-11 18:17:00,
2013-01-11 13:23:00,56.3,49.9,29.87,SW,229,14.0,18.0,79,0.00,,,0.35,Wunderground v.1.15,2013-01-11 18:23:00,
2013-01-11 13:28:00,55.7,49.3,29.87,WSW,243,14.0,19.0,79,0.00,,,0.35,Wunderground v.1.15,2013-01-11 18:28:00,
2013-01-11 13:34:00,55.2,49.5,29.87,SW,231,14.0,22.0,81,0.00,,,0.35,Wunderground v.1.15,2013-01-11 18:34:00,
2013-01-11 13:40:00,54.9,49.5,29.87,SW,232,12.0,12.0,82,0.00,,,0.35,Wunderground v.1.15,2013-01-11 18:40:00,
2013-01-11 13:46:00,55.0,49.9,29.87,SSW,204,9.0,22.0,83,0.00,,,0.35,Wunderground v.1.15,2013-01-11 18:46:00,
2013-01-11 13:51:00,55.1,50.0,29.87,WSW,249,8.0,11.0,83,0.00,,,0.35,Wunderground v.1.15,2013-01-11 18:51:00,
2013-01-11 13:57:00,55.4,50.3,29.87,SW,228,8.0,22.0,83,0.00,,,0.35,Wunderground v.1.15,2013-01-11 18:57:00,
2013-01-11 14:03:00,55.5,49.4,29.87,SW,218,9.0,14.0,80,0.00,,,0.35,Wunderground v.1.15,2013-01-11 19:03:00,
2013-01-11 14:09:00,55.8,49.7,29.87,SW,225,10.0,14.0,80,0.00,,,0.35,Wunderground v.1.15,2013-01-11 19:09:00,
2013-01-11 14:15:00,56.3,50.2,29.87,SSW,207,9.0,15.0,80,0.00,,,0.35,Wunderground v.1.15,2013-01-11 19:15:00,
2013-01-11 14:20:00,56.2,49.1,29.88,SSW,204,9.0,10.0,77,0.00,,,0.35,Wunderground v.1.15,2013-01-11 19:20:00,
2013-01-11 14:26:00,55.6,48.5,29.88,SSW,205,10.0,13.0,77,0.00,,,0.35,Wunderground v.1.15,2013-01-11 19:26:00,
2013-01-11 14:32:00,55.4,49.0,29.88,SW,221,10.0,27.0,79,0.00,,,0.35,Wunderground v.1.15,2013-01-11 19:32:00,
2013-01-11 14:38:00,55.1,49.0,29.89,SW,233,9.0,27.0,80,0.00,,,0.35,Wunderground v.1.15,2013-01-11 19:38:00,
2013-01-11 14:44:00,54.9,48.5,29.89,SW,226,11.0,27.0,79,0.00,,,0.35,Wunderground v.1.15,2013-01-11 19:44:00,
2013-01-11 14:49:00,54.7,49.0,29.89,SW,232,10.0,27.0,81,0.00,,,0.35,Wunderground v.1.15,2013-01-11 19:49:00,
2013-01-11 14:54:00,54.6,48.6,29.89,NNW,333,9.0,27.0,80,0.00,,,0.35,Wunderground v.1.15,2013-01-11 19:54:00,
2013-01-11 15:00:00,54.5,48.5,29.89,SW,232,9.0,9.0,80,0.00,,,0.35,Wunderground v.1.15,2013-01-11 20:00:00,
2013-01-11 15:06:00,54.5,48.5,29.89,SW,236,9.0,12.0,80,0.00,,,0.35,Wunderground v.1.15,2013-01-11 20:06:00,
2013-01-11 15:11:00,54.6,48.2,29.89,SSW,193,9.0,9.0,79,0.00,,,0.35,Wunderground v.1.15,2013-01-11 20:11:00,
2013-01-11 15:17:00,54.6,48.2,29.90,SW,215,8.0,9.0,79,0.00,,,0.35,Wunderground v.1.15,2013-01-11 20:17:00,
2013-01-11 15:23:00,54.7,48.3,29.89,SW,221,6.0,7.0,79,0.00,,,0.35,Wunderground v.1.15,2013-01-11 20:23:00,
2013-01-11 15:29:00,55.2,48.5,29.89,SW,226,6.0,10.0,78,0.00,,,0.35,Wunderground v.1.15,2013-01-11 20:29:00,
2013-01-11 15:35:00,55.5,48.8,29.89,WSW,243,7.0,20.0,78,0.00,,,0.35,Wunderground v.1.15,2013-01-11 20:35:00,
2013-01-11 15:40:00,55.5,48.8,29.89,SW,214,8.0,8.0,78,0.00,,,0.35,Wunderground v.1.15,2013-01-11 20:40:00,
2013-01-11 15:46:00,55.7,48.9,29.89,SW,225,7.0,20.0,78,0.00,,,0.35,Wunderground v.1.15,2013-01-11 20:46:00,
2013-01-11 15:52:00,55.5,48.4,29.89,SSW,210,7.0,20.0,77,0.00,,,0.35,Wunderground v.1.15,2013-01-11 20:52:00,
2013-01-11 15:58:00,55.3,48.6,29.89,WSW,240,8.0,20.0,78,0.00,,,0.35,Wunderground v.1.15,2013-01-11 20:58:00,
2013-01-11 16:04:00,55.0,48.3,29.89,SSW,199,8.0,12.0,78,0.00,,,0.35,Wunderground v.1.15,2013-01-11 21:04:00,
2013-01-11 16:10:00,54.7,48.3,29.90,WSW,250,8.0,9.0,79,0.00,,,0.35,Wunderground v.1.15,2013-01-11 21:10:00,
2013-01-11 16:15:00,54.5,48.1,29.90,SW,222,8.0,12.0,79,0.00,,,0.35,Wunderground v.1.15,2013-01-11 21:15:00,
2013-01-11 16:21:00,54.5,48.1,29.90,SW,225,7.0,9.0,79,0.00,,,0.35,Wunderground v.1.15,2013-01-11 21:21:00,
2013-01-11 16:27:00,54.5,48.5,29.90,SW,229,7.0,9.0,80,0.00,,,0.35,Wunderground v.1.15,2013-01-11 21:27:00,
2013-01-11 16:33:00,54.4,48.4,29.89,SSW,212,6.0,18.0,80,0.00,,,0.35,Wunderground v.1.15,2013-01-11 21:33:00,
2013-01-11 16:38:00,54.2,48.5,29.90,SW,229,6.0,18.0,81,0.00,,,0.35,Wunderground v.1.15,2013-01-11 21:38:00,
2013-01-11 16:44:00,54.4,48.7,29.89,SSW,208,6.0,18.0,81,0.00,,,0.35,Wunderground v.1.15,2013-01-11 21:44:00,
2013-01-11 16:50:00,54.5,48.8,29.90,SW,225,5.0,18.0,81,0.00,,,0.35,Wunderground v.1.15,2013-01-11 21:50:00,
2013-01-11 16:56:00,54.5,48.8,29.90,South,187,5.0,18.0,81,0.00,,,0.35,Wunderground v.1.15,2013-01-11 21:56:00,
2013-01-11 17:01:00,54.6,48.9,29.90,SSW,210,5.0,5.0,81,0.00,,,0.35,Wunderground v.1.15,2013-01-11 22:01:00,
2013-01-11 17:06:00,54.3,48.6,29.90,SSW,207,4.0,5.0,81,0.00,,,0.35,Wunderground v.1.15,2013-01-11 22:06:00,
2013-01-11 17:12:00,54.1,48.7,29.89,SSW,204,3.0,4.0,82,0.00,,,0.35,Wunderground v.1.15,2013-01-11 22:12:00,
2013-01-11 17:18:00,53.7,48.3,29.89,SE,134,3.0,4.0,82,0.00,,,0.35,Wunderground v.1.15,2013-01-11 22:18:00,
2013-01-11 17:24:00,53.1,48.4,29.89,SSE,163,3.0,3.0,84,0.00,,,0.35,Wunderground v.1.15,2013-01-11 22:24:00,
2013-01-11 17:30:00,52.7,48.3,29.89,South,173,3.0,5.0,85,0.00,,,0.35,Wunderground v.1.15,2013-01-11 22:30:00,
2013-01-11 17:36:00,52.3,47.9,29.89,SSE,165,3.0,16.0,85,0.00,,,0.35,Wunderground v.1.15,2013-01-11 22:36:00,
2013-01-11 17:41:00,51.8,47.7,29.89,SE,141,2.0,3.0,86,0.00,,,0.35,Wunderground v.1.15,2013-01-11 22:41:00,
2013-01-11 17:47:00,51.4,47.7,29.90,SSE,163,2.0,16.0,87,0.00,,,0.35,Wunderground v.1.15,2013-01-11 22:47:00,
2013-01-11 17:53:00,50.8,47.4,29.90,SSE,148,2.0,16.0,88,0.00,,,0.35,Wunderground v.1.15,2013-01-11 22:53:00,
2013-01-11 17:59:00,50.6,47.2,29.90,SSE,163,2.0,16.0,88,0.00,,,0.35,Wunderground v.1.15,2013-01-11 22:59:00,
2013-01-11 18:05:00,50.3,47.2,29.90,South,171,2.0,3.0,89,0.00,,,0.35,Wunderground v.1.15,2013-01-11 23:05:00,
2013-01-11 18:11:00,50.4,47.3,29.90,South,176,3.0,3.0,89,0.00,,,0.35,Wunderground v.1.15,2013-01-11 23:11:00,
2013-01-11 18:17:00,50.4,47.3,29.90,SSW,204,3.0,3.0,89,0.00,,,0.35,Wunderground v.1.15,2013-01-11 23:17:00,
2013-01-11 18:22:00,50.3,47.2,29.90,SE,135,2.0,4.0,89,0.00,,,0.35,Wunderground v.1.15,2013-01-11 23:22:00,
2013-01-11 18:28:00,50.2,47.1,29.91,South,179,3.0,4.0,89,0.00,,,0.35,Wunderground v.1.15,2013-01-11 23:28:00,
2013-01-11 18:34:00,50.1,47.0,29.90,SE,134,3.0,7.0,89,0.00,,,0.35,Wunderground v.1.15,2013-01-11 23:34:00,
2013-01-11 18:40:00,50.3,47.2,29.90,South,170,4.0,7.0,89,0.00,,,0.35,Wunderground v.1.15,2013-01-11 23:40:00,
2013-01-11 18:46:00,50.7,47.3,29.91,SSE,158,7.0,9.0,88,0.00,,,0.35,Wunderground v.1.15,2013-01-11 23:46:00,
2013-01-11 18:51:00,51.0,47.3,29.90,SSE,152,8.0,12.0,87,0.00,,,0.35,Wunderground v.1.15,2013-01-11 23:51:00,
2013-01-11 18:57:00,51.0,47.0,29.90,SSW,212,7.0,12.0,86,0.00,,,0.35,Wunderground v.1.15,2013-01-11 23:57:00,
2013-01-11 19:02:00,51.0,47.0,29.91,SSW,195,7.0,7.0,86,0.00,,,0.35,Wunderground v.1.15,2013-01-12 00:02:00,
2013-01-11 19:08:00,50.8,47.1,29.90,South,174,6.0,8.0,87,0.00,,,0.35,Wunderground v.1.15,2013-01-12 00:08:00,
2013-01-11 19:14:00,50.6,46.9,29.90,SSE,158,6.0,7.0,87,0.00,,,0.35,Wunderground v.1.15,2013-01-12 00:14:00,
2013-01-11 19:20:00,50.3,46.6,29.89,SW,221,5.0,7.0,87,0.00,,,0.35,Wunderground v.1.15,2013-01-12 00:20:00,
2013-01-11 19:25:00,50.3,46.6,29.90,SSE,167,6.0,7.0,87,0.00,,,0.35,Wunderground v.1.15,2013-01-12 00:25:00,
2013-01-11 19:31:00,50.3,46.6,29.90,SW,225,5.0,6.0,87,0.00,,,0.35,Wunderground v.1.15,2013-01-12 00:31:00,
2013-01-11 19:37:00,49.9,46.2,29.90,SE,133,4.0,6.0,87,0.00,,,0.35,Wunderground v.1.15,2013-01-12 00:37:00,
2013-01-11 19:42:00,49.5,46.1,29.90,SSE,155,4.0,6.0,88,0.00,,,0.35,Wunderground v.1.15,2013-01-12 00:42:00,
2013-01-11 19:48:00,49.1,45.7,29.89,ESE,117,4.0,6.0,88,0.00,,,0.35,Wunderground v.1.15,2013-01-12 00:48:00,
2013-01-11 19:54:00,48.8,45.7,29.89,SSE,167,4.0,6.0,89,0.00,,,0.35,Wunderground v.1.15,2013-01-12 00:54:00,
2013-01-11 20:00:00,48.7,45.6,29.89,SSW,195,4.0,4.0,89,0.00,,,0.35,Wunderground v.1.15,2013-01-12 01:00:00,
2013-01-11 20:06:00,48.5,45.4,29.89,SSE,150,4.0,6.0,89,0.00,,,0.35,Wunderground v.1.15,2013-01-12 01:06:00,
2013-01-11 20:12:00,48.4,45.3,29.89,SSE,153,4.0,6.0,89,0.00,,,0.35,Wunderground v.1.15,2013-01-12 01:12:00,
2013-01-11 20:17:00,48.5,45.4,29.89,SE,130,5.0,8.0,89,0.00,,,0.35,Wunderground v.1.15,2013-01-12 01:17:00,
2013-01-11 20:23:00,48.6,45.5,29.89,SE,139,5.0,8.0,89,0.00,,,0.35,Wunderground v.1.15,2013-01-12 01:23:00,
2013-01-11 20:29:00,48.7,45.6,29.89,SE,134,5.0,8.0,89,0.00,,,0.35,Wunderground v.1.15,2013-01-12 01:29:00,
2013-01-11 20:35:00,48.8,46.0,29.89,SE,129,6.0,11.0,90,0.00,,,0.35,Wunderground v.1.15,2013-01-12 01:35:00,
2013-01-11 20:41:00,48.8,46.0,29.89,SSE,148,5.0,11.0,90,0.00,,,0.35,Wunderground v.1.15,2013-01-12 01:41:00,
2013-01-11 20:47:00,48.8,46.0,29.88,SE,134,5.0,11.0,90,0.00,,,0.35,Wunderground v.1.15,2013-01-12 01:47:00,
2013-01-11 20:52:00,48.9,46.1,29.88,SSE,159,5.0,11.0,90,0.00,,,0.35,Wunderground v.1.15,2013-01-12 01:52:00,
2013-01-11 20:57:00,49.1,46.3,29.89,SSE,156,5.0,11.0,90,0.00,,,0.35,Wunderground v.1.15,2013-01-12 01:57:00,
2013-01-11 21:02:00,49.3,46.5,29.89,SSW,195,6.0,6.0,90,0.00,,,0.35,Wunderground v.1.15,2013-01-12 02:02:00,
2013-01-11 21:08:00,49.4,46.6,29.89,SSE,148,6.0,8.0,90,0.00,,,0.35,Wunderground v.1.15,2013-01-12 02:08:00,
2013-01-11 21:13:00,49.4,46.6,29.89,South,181,5.0,9.0,90,0.00,,,0.35,Wunderground v.1.15,2013-01-12 02:13:00,
2013-01-11 21:19:00,49.5,46.7,29.89,SSE,149,5.0,9.0,90,0.00,,,0.35,Wunderground v.1.15,2013-01-12 02:19:00,
2013-01-11 21:25:00,49.7,46.9,29.89,SSW,205,6.0,8.0,90,0.00,,,0.35,Wunderground v.1.15,2013-01-12 02:25:00,
2013-01-11 21:31:00,50.0,47.2,29.89,SSW,198,7.0,8.0,90,0.00,,,0.35,Wunderground v.1.15,2013-01-12 02:31:00,
2013-01-11 21:37:00,50.1,47.0,29.88,SSE,160,6.0,11.0,89,0.00,,,0.35,Wunderground v.1.15,2013-01-12 02:37:00,
2013-01-11 21:43:00,50.2,47.1,29.88,SSW,200,6.0,11.0,89,0.00,,,0.35,Wunderground v.1.15,2013-01-12 02:43:00,
2013-01-11 21:48:00,50.3,47.2,29.88,South,187,7.0,11.0,89,0.00,,,0.35,Wunderground v.1.15,2013-01-12 02:48:00,
2013-01-11 21:54:00,50.4,47.3,29.88,SSE,167,8.0,11.0,89,0.00,,,0.35,Wunderground v.1.15,2013-01-12 02:54:00,
2013-01-11 22:00:00,50.5,47.4,29.88,South,183,7.0,7.0,89,0.00,,,0.35,Wunderground v.1.15,2013-01-12 03:00:00,
2013-01-11 22:06:00,50.6,47.5,29.88,South,183,7.0,10.0,89,0.00,,,0.35,Wunderground v.1.15,2013-01-12 03:06:00,
2013-01-11 22:12:00,50.6,47.5,29.89,SSW,207,7.0,11.0,89,0.00,,,0.35,Wunderground v.1.15,2013-01-12 03:12:00,
2013-01-11 22:18:00,50.6,47.5,29.89,SSW,193,7.0,11.0,89,0.00,,,0.35,Wunderground v.1.15,2013-01-12 03:18:00,
2013-01-11 22:24:00,50.6,47.2,29.90,SSW,205,7.0,10.0,88,0.00,,,0.35,Wunderground v.1.15,2013-01-12 03:24:00,
2013-01-11 22:30:00,50.6,47.5,29.89,South,181,8.0,9.0,89,0.00,,,0.35,Wunderground v.1.15,2013-01-12 03:30:00,
2013-01-11 22:36:00,50.7,47.3,29.89,South,191,8.0,12.0,88,0.00,,,0.35,Wunderground v.1.15,2013-01-12 03:36:00,
2013-01-11 22:42:00,50.8,47.4,29.89,SSW,195,8.0,12.0,88,0.00,,,0.35,Wunderground v.1.15,2013-01-12 03:42:00,
2013-01-11 22:47:00,50.8,47.4,29.89,SSE,155,9.0,14.0,88,0.00,,,0.35,Wunderground v.1.15,2013-01-12 03:47:00,
2013-01-11 22:53:00,50.7,47.3,29.89,SSW,210,9.0,12.0,88,0.00,,,0.35,Wunderground v.1.15,2013-01-12 03:53:00,
2013-01-11 22:59:00,50.6,47.2,29.89,SSW,209,8.0,12.0,88,0.00,,,0.35,Wunderground v.1.15,2013-01-12 03:59:00,